Time;durP1;ratioP1;P1;durP2;ratioP2;P2;SDS_P1;SDS_P2;PMS_P1;PMS_P2;Temp;Humidity;BMP_temperature;BMP_pressure;BME280_temperature;BME280_humidity;BME280_pressure;Samples;Min_cycle;Max_cycle;Signal;HPM_P1;HPM_P2
2022/09/23 00:00:48;;;;;;;4.40;2.00;;;11.80;99.90;;;;;;5073001;28;20489;-72
2022/09/23 00:03:15;;;;;;;4.07;2.00;;;11.90;99.90;;;;;;5073177;28;20021;-72
2022/09/23 00:05:42;;;;;;;5.43;2.20;;;11.90;99.90;;;;;;5055074;28;20060;-72
2022/09/23 00:08:10;;;;;;;6.07;2.13;;;11.90;99.90;;;;;;5073165;28;20319;-71
2022/09/23 00:10:38;;;;;;;4.13;1.75;;;11.90;99.90;;;;;;5072890;28;20297;-71
2022/09/23 00:13:05;;;;;;;4.03;1.90;;;11.90;99.90;;;;;;5054754;28;20485;-72
2022/09/23 00:15:32;;;;;;;4.27;1.90;;;11.90;99.90;;;;;;5072778;28;20032;-72
2022/09/23 00:17:58;;;;;;;6.50;2.30;;;11.90;99.90;;;;;;5054934;28;20378;-72
2022/09/23 00:20:24;;;;;;;4.43;1.90;;;11.90;99.90;;;;;;5072410;28;20032;-72
2022/09/23 00:22:52;;;;;;;4.53;1.77;;;11.80;99.90;;;;;;5038190;28;20036;-73
2022/09/23 00:25:18;;;;;;;3.80;1.93;;;11.80;99.90;;;;;;5054680;28;20036;-72
2022/09/23 00:27:44;;;;;;;4.17;1.60;;;11.90;99.90;;;;;;5072623;28;20029;-72
2022/09/23 00:30:10;;;;;;;3.67;2.10;;;11.80;99.90;;;;;;5054456;28;20068;-72
2022/09/23 00:32:36;;;;;;;3.83;1.90;;;11.80;99.90;;;;;;5072334;28;20036;-71
2022/09/23 00:35:03;;;;;;;4.60;1.77;;;11.80;99.90;;;;;;5054504;28;20031;-71
2022/09/23 00:37:30;;;;;;;4.43;1.97;;;11.80;99.90;;;;;;5072461;28;20185;-71
2022/09/23 00:39:55;;;;;;;3.90;1.60;;;11.80;99.90;;;;;;5054678;28;20029;-72
2022/09/23 00:42:23;;;;;;;5.87;1.87;;;11.70;99.90;;;;;;5072239;28;20408;-71
2022/09/23 00:44:57;;;;;;;4.17;1.93;;;11.70;99.90;;;;;;5072354;28;20028;-71
2022/09/23 00:47:35;;;;;;;7.27;1.83;;;11.70;99.90;;;;;;5072330;28;20504;-71
2022/09/23 00:50:17;;;;;;;3.23;1.80;;;11.70;99.90;;;;;;5072025;28;20033;-72
2022/09/23 00:52:43;;;;;;;4.10;1.73;;;11.70;99.90;;;;;;5071993;28;20044;-71
2022/09/23 00:55:29;;;;;;;4.47;2.00;;;11.70;99.90;;;;;;5072047;28;20032;-71
2022/09/23 00:57:57;;;;;;;5.50;1.93;;;11.70;99.90;;;;;;5071999;28;20039;-71
2022/09/23 01:00:24;;;;;;;5.90;1.75;;;11.70;99.90;;;;;;5072087;28;20025;-71
2022/09/23 01:02:50;;;;;;;3.97;1.93;;;11.70;99.90;;;;;;5072025;28;20033;-71
2022/09/23 01:05:17;;;;;;;3.97;1.77;;;11.70;99.90;;;;;;5071901;28;20021;-72
2022/09/23 01:07:44;;;;;;;3.70;1.83;;;11.70;99.90;;;;;;5053698;28;20032;-71
2022/09/23 01:10:13;;;;;;;3.90;1.73;;;11.60;99.90;;;;;;5071669;28;20060;-71
2022/09/23 01:13:05;;;;;;;4.63;1.83;;;11.60;99.90;;;;;;5071812;28;20051;-72
2022/09/23 01:15:51;;;;;;;4.53;1.80;;;11.70;99.90;;;;;;5071575;28;20089;-72
2022/09/23 01:18:36;;;;;;;4.37;1.80;;;11.70;99.90;;;;;;5071433;28;20060;-72
2022/09/23 01:21:20;;;;;;;3.33;1.70;;;11.70;99.90;;;;;;5071737;28;20029;-72
2022/09/23 01:24:11;;;;;;;3.13;1.73;;;11.70;99.90;;;;;;5071493;28;20040;-71
2022/09/23 01:26:40;;;;;;;3.50;1.80;;;11.70;99.90;;;;;;5071496;28;20485;-71
2022/09/23 01:29:09;;;;;;;3.38;1.65;;;11.70;99.90;;;;;;5053310;28;20086;-72
2022/09/23 01:31:57;;;;;;;3.70;1.70;;;11.60;99.90;;;;;;5071352;28;20028;-71
2022/09/23 01:34:57;;;;;;;3.60;1.60;;;11.60;99.90;;;;;;5053464;28;20032;-71
2022/09/23 01:37:43;;;;;;;5.20;1.80;;;11.70;99.90;;;;;;5071110;28;20020;-71
2022/09/23 01:40:39;;;;;;;3.93;1.87;;;11.60;99.90;;;;;;5071263;28;20028;-71
2022/09/23 01:43:09;;;;;;;4.67;1.67;;;11.60;99.90;;;;;;5060368;28;20485;-72
2022/09/23 01:45:39;;;;;;;4.00;1.73;;;11.60;99.90;;;;;;5071299;28;20028;-72
2022/09/23 01:48:20;;;;;;;4.07;1.80;;;11.60;99.90;;;;;;5071462;28;20040;-72
2022/09/23 01:50:55;;;;;;;3.63;1.73;;;11.60;99.90;;;;;;5070813;28;20110;-71
2022/09/23 01:53:38;;;;;;;3.63;1.70;;;11.60;99.90;;;;;;5071057;28;20031;-72
2022/09/23 01:56:27;;;;;;;3.60;1.70;;;11.60;99.90;;;;;;5070946;28;20366;-72
2022/09/23 01:59:04;;;;;;;5.10;1.83;;;11.60;99.90;;;;;;5070302;28;20041;-71
2022/09/23 02:01:52;;;;;;;3.87;1.40;;;11.50;99.90;;;;;;5070944;28;20505;-71
2022/09/23 02:04:38;;;;;;;3.63;1.70;;;11.60;99.90;;;;;;5053454;28;20389;-73
2022/09/23 02:07:14;;;;;;;4.90;1.60;;;11.60;99.90;;;;;;5070835;28;20370;-72
2022/09/23 02:09:48;;;;;;;5.07;2.07;;;11.60;99.90;;;;;;5070711;28;20086;-72
2022/09/23 02:12:17;;;;;;;4.30;1.60;;;11.60;99.90;;;;;;5070861;28;20033;-72
2022/09/23 02:14:52;;;;;;;4.27;1.80;;;11.50;99.90;;;;;;5052858;28;20029;-71
2022/09/23 02:17:46;;;;;;;3.90;1.80;;;11.50;99.90;;;;;;5052566;28;20032;-71
2022/09/23 02:20:19;;;;;;;3.37;1.80;;;11.50;99.90;;;;;;5012560;28;20040;-71
2022/09/23 02:22:45;;;;;;;3.83;1.60;;;11.50;99.90;;;;;;5070921;28;20033;-71
2022/09/23 02:25:11;;;;;;;2.53;1.50;;;11.50;99.90;;;;;;5071015;28;20028;-73
2022/09/23 02:27:55;;;;;;;4.20;1.80;;;11.50;99.90;;;;;;5070537;28;20067;-71
2022/09/23 02:30:27;;;;;;;4.87;2.33;;;11.60;99.90;;;;;;5070650;28;20033;-71
2022/09/23 02:33:19;;;;;;;3.27;1.57;;;11.60;99.90;;;;;;5052730;28;20412;-71
2022/09/23 02:35:51;;;;;;;4.00;1.80;;;11.70;99.90;;;;;;5070561;28;20097;-71
2022/09/23 02:38:58;;;;;;;5.50;2.03;;;11.70;99.90;;;;;;5070729;28;20059;-71
2022/09/23 02:41:35;;;;;;;3.87;1.50;;;11.80;99.90;;;;;;5066496;28;20128;-72
2022/09/23 02:44:05;;;;;;;4.27;2.17;;;11.80;99.90;;;;;;5070543;28;20086;-72
2022/09/23 02:46:31;;;;;;;6.63;2.00;;;11.90;99.90;;;;;;5052573;28;20090;-71
2022/09/23 02:49:04;;;;;;;5.67;1.80;;;11.90;99.90;;;;;;5070408;28;20035;-71
2022/09/23 02:51:36;;;;;;;4.67;2.40;;;11.90;99.90;;;;;;5052431;28;20131;-72
2022/09/23 02:54:05;;;;;;;6.67;2.03;;;12.00;99.90;;;;;;5070607;28;20028;-71
2022/09/23 02:56:32;;;;;;;;;;;11.90;99.90;;;;;;5070911;28;20029;-72
2022/09/23 02:58:58;;;;;;;2.97;1.53;;;12.00;99.90;;;;;;5070379;28;19932;-71
2022/09/23 03:01:51;;;;;;;5.97;1.83;;;12.00;99.90;;;;;;5070341;28;20284;-72
2022/09/23 03:04:49;;;;;;;6.83;2.37;;;12.00;99.90;;;;;;5070449;28;20029;-72
2022/09/23 03:07:48;;;;;;;3.50;1.87;;;11.90;99.90;;;;;;5052439;28;20401;-72
2022/09/23 03:10:23;;;;;;;4.72;1.90;;;12.00;99.90;;;;;;5070054;28;20481;-71
2022/09/23 03:13:10;;;;;;;4.80;1.83;;;12.00;99.90;;;;;;5070170;28;20036;-71
2022/09/23 03:15:43;;;;;;;4.33;1.83;;;11.90;99.90;;;;;;5052558;28;20036;-71
2022/09/23 03:18:18;;;;;;;5.40;2.30;;;11.90;99.90;;;;;;5070332;28;20477;-71
2022/09/23 03:20:50;;;;;;;6.63;1.83;;;11.90;99.90;;;;;;5070006;28;20526;-70
2022/09/23 03:23:23;;;;;;;4.43;1.93;;;11.90;99.90;;;;;;5070232;28;20085;-70
2022/09/23 03:25:52;;;;;;;4.07;1.80;;;12.00;99.90;;;;;;5093373;22;20509;-81
2022/09/23 03:28:21;;;;;;;5.00;2.05;;;11.90;99.90;;;;;;5036987;28;20028;-81
2022/09/23 03:30:49;;;;;;;4.50;2.10;;;11.90;99.90;;;;;;5055323;28;20033;-80
2022/09/23 03:33:19;;;;;;;3.83;1.80;;;11.80;99.90;;;;;;5073518;28;20029;-81
2022/09/23 03:38:54;;;;;;;4.57;1.73;;;11.70;99.90;;;;;;5073128;28;20096;-81
2022/09/23 03:41:29;;;;;;;4.97;1.90;;;11.70;99.90;;;;;;5073242;28;20024;-81
2022/09/23 03:43:58;;;;;;;4.60;2.30;;;11.70;99.90;;;;;;5073279;28;20107;-81
2022/09/23 03:46:26;;;;;;;4.43;1.98;;;11.70;99.90;;;;;;5073095;28;20465;-81
2022/09/23 03:48:54;;;;;;;4.10;1.70;;;11.70;99.90;;;;;;5054981;28;20068;-81
2022/09/23 03:51:22;;;;;;;5.63;2.13;;;11.70;99.90;;;;;;5071870;28;20154;-81
2022/09/23 03:53:49;;;;;;;5.00;1.90;;;11.70;99.90;;;;;;5072975;28;20063;-81
2022/09/23 03:56:15;;;;;;;4.70;2.10;;;11.60;99.90;;;;;;5054964;28;20504;-81
2022/09/23 03:58:42;;;;;;;6.80;2.27;;;11.60;99.90;;;;;;5072879;28;20488;-81
2022/09/23 04:01:08;;;;;;;3.97;2.00;;;11.60;99.90;;;;;;5073062;28;20439;-81
2022/09/23 04:03:34;;;;;;;3.13;1.80;;;11.50;99.90;;;;;;5072922;28;20031;-81
2022/09/23 04:06:00;;;;;;;3.97;2.00;;;11.40;99.90;;;;;;5072434;28;20036;-81
2022/09/23 04:08:26;;;;;;;4.57;2.17;;;11.40;99.90;;;;;;5072932;28;20036;-80
2022/09/23 04:10:51;;;;;;;7.80;1.90;;;11.30;99.90;;;;;;5072513;28;20033;-81
2022/09/23 04:13:17;;;;;;;5.70;2.10;;;11.40;99.90;;;;;;5072647;28;20047;-81
2022/09/23 04:15:43;;;;;;;5.90;3.50;;;11.30;99.90;;;;;;5072393;28;20074;-81
2022/09/23 04:18:08;;;;;;;7.80;3.00;;;11.30;99.90;;;;;;5072493;28;20043;-79
2022/09/23 04:20:34;;;;;;;4.57;2.07;;;11.30;99.90;;;;;;5072315;28;20030;-81
2022/09/23 04:23:00;;;;;;;5.87;2.17;;;11.40;99.90;;;;;;5072435;28;20036;-80
2022/09/23 04:25:26;;;;;;;5.73;2.07;;;11.40;99.90;;;;;;5072380;28;20032;-81
2022/09/23 04:27:51;;;;;;;3.97;2.03;;;11.40;99.90;;;;;;5072266;28;20476;-81
2022/09/23 04:30:17;;;;;;;4.70;1.90;;;11.40;99.90;;;;;;5072234;28;20032;-80
2022/09/23 04:32:43;;;;;;;5.77;1.93;;;11.40;99.90;;;;;;5072401;28;20060;-81
2022/09/23 04:35:08;;;;;;;5.30;2.13;;;11.40;99.90;;;;;;5072298;28;20070;-81
2022/09/23 04:37:34;;;;;;;3.90;1.73;;;11.40;99.90;;;;;;5072439;28;20111;-81
2022/09/23 04:40:01;;;;;;;3.97;1.90;;;11.40;99.90;;;;;;5071413;28;20025;-81
2022/09/23 04:42:28;;;;;;;4.57;1.90;;;11.50;99.90;;;;;;5054345;28;20158;-80
2022/09/23 04:44:54;;;;;;;5.10;1.77;;;11.50;99.90;;;;;;5072001;28;20040;-81
2022/09/23 04:47:20;;;;;;;4.40;1.77;;;11.50;99.90;;;;;;5053856;28;20036;-81
2022/09/23 04:49:46;;;;;;;4.10;1.80;;;11.50;99.90;;;;;;5071806;28;20116;-80
2022/09/23 04:52:11;;;;;;;4.40;2.00;;;11.50;99.90;;;;;;5071827;28;20045;-81
2022/09/23 04:54:37;;;;;;;6.40;1.93;;;11.50;99.90;;;;;;5071888;28;20100;-81
2022/09/23 04:57:03;;;;;;;4.37;2.20;;;11.50;99.90;;;;;;5071744;28;20029;-81
2022/09/23 04:59:29;;;;;;;4.63;2.00;;;11.50;99.90;;;;;;5071680;28;20107;-81
2022/09/23 05:01:54;;;;;;;5.13;1.90;;;11.50;99.90;;;;;;5071725;28;20366;-80
2022/09/23 05:04:20;;;;;;;8.80;2.30;;;11.50;99.90;;;;;;5071586;28;20111;-81
2022/09/23 05:06:46;;;;;;;3.37;1.87;;;11.50;99.90;;;;;;5071518;28;20036;-80
2022/09/23 05:09:16;;;;;;;3.83;1.90;;;11.60;99.90;;;;;;5071592;28;20032;-81
2022/09/23 05:11:42;;;;;;;5.67;2.00;;;11.60;99.90;;;;;;5071643;28;20039;-80
2022/09/23 05:14:08;;;;;;;4.70;1.90;;;11.60;99.90;;;;;;5053493;28;20025;-81
2022/09/23 05:16:34;;;;;;;4.57;2.00;;;11.60;99.90;;;;;;5071338;28;20035;-81
2022/09/23 05:19:01;;;;;;;4.73;2.40;;;11.60;99.90;;;;;;5071381;28;20103;-81
2022/09/23 05:21:30;;;;;;;5.20;2.10;;;11.60;99.90;;;;;;5071311;28;20028;-81
2022/09/23 05:23:59;;;;;;;8.10;2.35;;;11.60;99.90;;;;;;5071596;28;20035;-80
2022/09/23 05:26:30;;;;;;;7.63;3.10;;;11.60;99.90;;;;;;5071373;28;20413;-81
2022/09/23 05:28:57;;;;;;;6.73;2.90;;;11.60;99.90;;;;;;5071090;28;20404;-81
2022/09/23 05:31:25;;;;;;;6.90;2.63;;;11.60;99.90;;;;;;5053435;28;20127;-81
2022/09/23 05:33:54;;;;;;;6.80;3.10;;;11.50;99.90;;;;;;5071526;28;20112;-81
2022/09/23 05:36:21;;;;;;;9.05;3.78;;;11.60;99.90;;;;;;5053055;28;20182;-80
2022/09/23 05:38:48;;;;;;;8.13;3.30;;;11.60;99.90;;;;;;5053035;28;20072;-81
2022/09/23 05:41:15;;;;;;;7.03;3.27;;;11.60;99.90;;;;;;5071004;28;20453;-80
2022/09/23 05:43:41;;;;;;;6.13;3.13;;;11.60;99.90;;;;;;5071099;28;20024;-81
2022/09/23 05:46:11;;;;;;;7.90;3.13;;;11.60;99.90;;;;;;5070582;28;20032;-80
2022/09/23 05:48:38;;;;;;;7.90;3.07;;;11.60;99.90;;;;;;5070771;28;20036;-80
2022/09/23 05:51:11;;;;;;;5.97;2.70;;;11.50;99.90;;;;;;5052076;28;20131;-81
2022/09/23 05:53:38;;;;;;;5.30;2.80;;;11.60;99.90;;;;;;5070761;28;20035;-81
2022/09/23 05:56:05;;;;;;;5.03;2.60;;;11.60;99.90;;;;;;5070629;28;20032;-80
2022/09/23 05:58:31;;;;;;;5.73;2.90;;;11.60;99.90;;;;;;5070760;28;20436;-80
2022/09/23 06:00:57;;;;;;;8.80;3.00;;;11.60;99.90;;;;;;5069535;28;20174;-80
2022/09/23 06:03:24;;;;;;;8.40;2.57;;;11.60;99.90;;;;;;5069487;28;20495;-80
2022/09/23 06:05:54;;;;;;;6.17;2.80;;;11.60;99.90;;;;;;5052492;28;20408;-80
2022/09/23 06:08:20;;;;;;;6.27;2.47;;;11.70;99.90;;;;;;5052901;28;20427;-81
2022/09/23 06:10:47;;;;;;;4.60;2.20;;;11.70;99.90;;;;;;5052477;28;20453;-80
2022/09/23 06:13:14;;;;;;;7.10;2.67;;;11.70;99.90;;;;;;5052915;28;20036;-80
2022/09/23 06:15:42;;;;;;;8.30;2.43;;;11.70;99.90;;;;;;5052573;28;20074;-80
2022/09/23 06:18:08;;;;;;;7.17;2.70;;;11.70;99.90;;;;;;5070723;28;20028;-80
2022/09/23 06:20:34;;;;;;;5.87;2.80;;;11.70;99.90;;;;;;5052625;28;20035;-80
2022/09/23 06:23:08;;;;;;;9.67;3.23;;;11.80;99.90;;;;;;5070531;28;20033;-80
2022/09/23 06:25:35;;;;;;;5.70;2.77;;;11.80;99.90;;;;;;5070419;28;20037;-80
2022/09/23 06:28:01;;;;;;;8.70;2.60;;;11.80;99.90;;;;;;5070283;28;20047;-80
2022/09/23 06:30:27;;;;;;;5.33;2.37;;;11.80;99.90;;;;;;5069024;28;20078;-81
2022/09/23 06:32:55;;;;;;;5.37;2.67;;;11.90;99.90;;;;;;5070547;28;20085;-80
2022/09/23 06:35:25;;;;;;;6.23;2.33;;;11.90;99.90;;;;;;5070405;28;20028;-81
2022/09/23 06:37:52;;;;;;;6.03;2.93;;;11.90;99.90;;;;;;5070248;28;20111;-81
2022/09/23 06:40:19;;;;;;;7.40;2.27;;;11.90;99.90;;;;;;5070056;28;20469;-81
2022/09/23 06:42:44;;;;;;;6.57;2.30;;;11.90;99.90;;;;;;5070574;28;20031;-80
2022/09/23 06:45:13;;;;;;;6.63;2.73;;;11.90;99.90;;;;;;5070200;28;20412;-81
2022/09/23 06:47:40;;;;;;;5.10;2.25;;;12.00;99.90;;;;;;5068883;28;20037;-81
2022/09/23 06:50:07;;;;;;;3.93;2.10;;;12.10;99.90;;;;;;5070272;28;20040;-81
2022/09/23 06:52:33;;;;;;;6.53;2.80;;;12.10;99.90;;;;;;5070366;28;20371;-80
2022/09/23 06:55:00;;;;;;;4.83;2.27;;;12.20;99.90;;;;;;5052216;28;20687;-81
2022/09/23 06:57:34;;;;;;;4.93;1.83;;;12.20;99.90;;;;;;5070131;28;20063;-81
2022/09/23 07:00:01;;;;;;;5.93;2.25;;;12.30;99.90;;;;;;5070013;28;20491;-81
2022/09/23 07:02:27;;;;;;;5.77;2.10;;;12.40;99.90;;;;;;5072105;28;20507;-80
2022/09/23 07:04:55;;;;;;;3.83;2.20;;;12.50;99.90;;;;;;5073933;28;20041;-80
2022/09/23 07:07:21;;;;;;;5.20;2.22;;;12.50;99.90;;;;;;5073555;28;20416;-80
2022/09/23 07:09:46;;;;;;;5.70;1.80;;;12.50;99.90;;;;;;5073527;28;20040;-81
2022/09/23 07:12:12;;;;;;;5.60;2.10;;;12.60;99.90;;;;;;5073697;28;20025;-80
2022/09/23 07:14:39;;;;;;;6.53;2.03;;;12.60;99.90;;;;;;5073561;28;20055;-80
2022/09/23 07:17:05;;;;;;;3.47;1.80;;;12.70;99.90;;;;;;5072301;28;20403;-80
2022/09/23 07:19:31;;;;;;;4.10;2.00;;;12.70;99.90;;;;;;5055696;28;20021;-81
2022/09/23 07:21:57;;;;;;;5.87;2.10;;;12.80;99.90;;;;;;5073586;28;20031;-80
2022/09/23 07:24:22;;;;;;;3.85;1.90;;;12.80;99.90;;;;;;5073553;28;20410;-81
2022/09/23 07:26:48;;;;;;;5.50;1.85;;;12.90;99.90;;;;;;5073518;28;20238;-80
2022/09/23 07:29:14;;;;;;;7.38;2.47;;;12.90;99.90;;;;;;5073265;28;20032;-81
2022/09/23 07:31:40;;;;;;;6.13;2.10;;;13.00;99.90;;;;;;5073512;28;20115;-81
2022/09/23 07:34:10;;;;;;;7.78;2.05;;;13.00;99.90;;;;;;5073272;28;20064;-80
2022/09/23 07:36:39;;;;;;;;;;;13.00;99.90;;;;;;5055646;28;20109;-80
2022/09/23 07:39:06;;;;;;;11.45;2.63;;;13.10;99.90;;;;;;5073282;28;19951;-81
2022/09/23 07:41:33;;;;;;;4.80;1.80;;;13.10;99.90;;;;;;5073325;28;20024;-81
2022/09/23 07:44:00;;;;;;;3.63;1.80;;;13.10;99.90;;;;;;5055233;28;20405;-80
2022/09/23 07:46:28;;;;;;;3.92;1.80;;;13.20;99.90;;;;;;5073130;28;20035;-80
2022/09/23 07:48:54;;;;;;;3.60;1.40;;;13.20;99.90;;;;;;5055027;28;20110;-81
2022/09/23 07:51:26;;;;;;;4.20;2.10;;;13.20;99.90;;;;;;5072948;28;20036;-81
2022/09/23 07:53:53;;;;;;;5.50;1.65;;;13.30;99.90;;;;;;5055055;28;20032;-80
2022/09/23 07:56:22;;;;;;;3.42;2.00;;;13.30;99.90;;;;;;5072825;28;20113;-80
2022/09/23 07:59:02;;;;;;;4.93;1.75;;;13.30;99.90;;;;;;5072822;28;20393;-81
2022/09/23 08:01:32;;;;;;;3.95;1.70;;;13.30;99.90;;;;;;5072955;28;20500;-81
2022/09/23 08:04:00;;;;;;;3.88;1.55;;;13.40;99.90;;;;;;5073001;28;20068;-80
2022/09/23 08:06:26;;;;;;;3.20;1.50;;;13.40;99.90;;;;;;5072751;28;20033;-81
2022/09/23 08:08:52;;;;;;;4.40;1.50;;;13.40;99.80;;;;;;5072545;28;20416;-81
2022/09/23 08:11:17;;;;;;;3.53;1.70;;;13.40;99.80;;;;;;5072835;28;20036;-81
2022/09/23 08:13:43;;;;;;;3.92;1.77;;;13.40;99.90;;;;;;5071844;28;20028;-80
2022/09/23 08:16:09;;;;;;;4.00;1.70;;;13.50;99.80;;;;;;5072227;28;20029;-81
2022/09/23 08:18:35;;;;;;;3.63;1.70;;;13.50;99.70;;;;;;5072583;28;20031;-81
2022/09/23 08:21:02;;;;;;;4.63;1.77;;;13.50;99.80;;;;;;5072695;28;20044;-81
2022/09/23 08:23:32;;;;;;;4.68;1.90;;;13.50;99.80;;;;;;5072589;28;20078;-80
2022/09/23 08:26:03;;;;;;;5.82;1.80;;;13.60;99.90;;;;;;5072169;28;20555;-80
2022/09/23 08:28:30;;;;;;;5.35;2.05;;;13.60;99.80;;;;;;5072336;28;20036;-81
2022/09/23 08:30:56;;;;;;;5.88;1.95;;;13.60;99.70;;;;;;5072189;28;20481;-80
2022/09/23 08:33:22;;;;;;;6.68;1.88;;;13.60;99.70;;;;;;5072308;28;20070;-81
2022/09/23 08:35:48;;;;;;;5.03;2.28;;;13.70;99.70;;;;;;5072104;28;20043;-81
2022/09/23 08:38:14;;;;;;;5.25;2.58;;;13.70;99.70;;;;;;5072145;28;20036;-81
2022/09/23 08:40:44;;;;;;;5.07;2.25;;;13.70;99.60;;;;;;5071909;28;20119;-80
2022/09/23 08:43:26;;;;;;;3.65;2.17;;;13.70;99.50;;;;;;5072070;28;20036;-81
2022/09/23 08:45:56;;;;;;;5.05;2.35;;;13.80;99.50;;;;;;5054086;28;20036;-81
2022/09/23 08:48:43;;;;;;;3.28;1.90;;;13.80;99.50;;;;;;5072184;28;20039;-81
2022/09/23 08:51:16;;;;;;;4.40;1.60;;;13.80;99.70;;;;;;5071817;28;20040;-80
2022/09/23 08:53:44;;;;;;;3.05;1.80;;;13.80;99.40;;;;;;5072358;28;20111;-80
2022/09/23 08:56:19;;;;;;;5.40;2.00;;;13.80;99.50;;;;;;5053750;28;20032;-81
2022/09/23 08:59:17;;;;;;;4.65;1.90;;;13.80;99.60;;;;;;5071832;28;20025;-80
2022/09/23 09:02:04;;;;;;;4.50;2.00;;;13.80;99.80;;;;;;5071780;28;20036;-81
2022/09/23 09:04:43;;;;;;;3.85;1.42;;;13.80;99.90;;;;;;5071818;28;20059;-80
2022/09/23 09:07:09;;;;;;;5.00;1.77;;;13.80;99.90;;;;;;5053987;28;20036;-80
2022/09/23 09:10:02;;;;;;;3.35;1.80;;;13.80;99.90;;;;;;5053600;28;20038;-81
2022/09/23 09:12:44;;;;;;;5.90;1.80;;;13.90;99.90;;;;;;5071392;28;20054;-81
2022/09/23 09:15:18;;;;;;;3.55;1.63;;;13.90;99.90;;;;;;5071546;28;20032;-81
2022/09/23 09:18:10;;;;;;;4.78;2.22;;;13.90;99.90;;;;;;5071389;28;20040;-81
2022/09/23 09:20:55;;;;;;;3.92;2.13;;;14.00;99.90;;;;;;5071095;28;20028;-81
2022/09/23 09:23:27;;;;;;;5.05;2.28;;;14.00;99.90;;;;;;5071575;28;20051;-81
2022/09/23 09:25:57;;;;;;;6.15;2.22;;;14.00;99.90;;;;;;5085565;22;20045;-84
2022/09/23 09:28:34;;;;;;;7.93;1.98;;;14.10;99.60;;;;;;5070191;28;20033;-84
2022/09/23 09:31:21;;;;;;;5.00;1.90;;;14.20;99.20;;;;;;5071207;28;20040;-84
2022/09/23 09:33:59;;;;;;;8.73;2.22;;;14.20;99.10;;;;;;5042639;28;20060;-84
2022/09/23 09:36:57;;;;;;;3.58;1.95;;;14.30;98.90;;;;;;5071200;28;20384;-84
2022/09/23 09:39:23;;;;;;;7.90;1.90;;;14.40;98.80;;;;;;5022613;28;20261;-84
2022/09/23 09:41:57;;;;;;;3.88;1.88;;;14.40;99.10;;;;;;5071106;28;20385;-84
2022/09/23 09:44:23;;;;;;;5.03;1.70;;;14.50;98.80;;;;;;5071143;28;20036;-84
2022/09/23 09:47:06;;;;;;;5.32;1.90;;;14.50;98.80;;;;;;5071337;28;20115;-84
2022/09/23 09:50:04;;;;;;;5.97;2.20;;;14.50;98.60;;;;;;5070894;28;20399;-84
2022/09/23 09:52:30;;;;;;;5.68;1.95;;;14.50;98.70;;;;;;5071034;28;20086;-84
2022/09/23 09:55:25;;;;;;;7.43;2.10;;;14.60;98.70;;;;;;5070918;28;20029;-84
2022/09/23 09:58:03;;;;;;;6.63;2.50;;;14.60;98.60;;;;;;5070679;28;20455;-84
2022/09/23 10:00:29;;;;;;;4.68;2.40;;;14.60;97.70;;;;;;5070574;28;20032;-84
2022/09/23 10:03:18;;;;;;;6.50;2.90;;;14.70;97.40;;;;;;5070733;28;20040;-84
2022/09/23 10:05:44;;;;;;;7.10;2.80;;;14.70;97.70;;;;;;5042076;28;20036;-84
2022/09/23 10:08:48;;;;;;;4.75;2.65;;;14.70;97.20;;;;;;5070764;28;20562;-84
2022/09/23 10:11:17;;;;;;;5.03;3.00;;;14.80;97.10;;;;;;5052963;28;20048;-84
2022/09/23 10:14:12;;;;;;;6.55;3.10;;;14.80;96.90;;;;;;5071034;28;20043;-84
2022/09/23 10:16:40;;;;;;;6.00;3.20;;;14.90;96.90;;;;;;5070358;28;20029;-84
2022/09/23 10:19:22;;;;;;;7.13;2.95;;;14.90;97.10;;;;;;5070366;28;20041;-84
2022/09/23 10:21:53;;;;;;;6.93;2.85;;;14.90;96.90;;;;;;5070923;28;20417;-84
2022/09/23 10:24:28;;;;;;;6.53;2.90;;;14.90;96.80;;;;;;5070547;28;20074;-84
2022/09/23 10:27:10;;;;;;;6.97;3.20;;;14.90;96.80;;;;;;5070562;28;20044;-84
2022/09/23 10:29:45;;;;;;;9.13;4.20;;;14.90;96.80;;;;;;5070327;28;20644;-84
2022/09/23 10:32:29;;;;;;;9.02;4.22;;;14.90;96.70;;;;;;5070583;28;20024;-84
2022/09/23 10:34:57;;;;;;;10.52;4.50;;;15.00;96.70;;;;;;5070786;28;20123;-84
2022/09/23 10:37:36;;;;;;;9.73;4.13;;;14.90;96.80;;;;;;5072230;28;20054;-84
2022/09/23 10:49:23;;;;;;;5.72;2.65;;;15.00;97.20;;;;;;5074357;28;20107;-84
2022/09/23 10:52:26;;;;;;;5.18;2.58;;;14.90;97.40;;;;;;5056428;28;20174;-84
2022/09/23 10:55:01;;;;;;;6.32;2.95;;;14.90;96.70;;;;;;5056392;28;20040;-84
2022/09/23 10:57:45;;;;;;;5.55;2.70;;;14.90;97.10;;;;;;5074196;28;20028;-84
2022/09/23 11:00:50;;;;;;;7.43;2.83;;;14.90;97.00;;;;;;5073994;28;20035;-84
2022/09/23 11:03:44;;;;;;;7.10;2.97;;;14.90;97.20;;;;;;5074307;28;20035;-84
2022/09/23 11:06:10;;;;;;;7.03;3.00;;;15.00;96.30;;;;;;5073833;28;20032;-84
2022/09/23 11:08:35;;;;;;;7.22;3.53;;;15.10;96.10;;;;;;5073869;28;20115;-84
2022/09/23 11:11:10;;;;;;;8.48;2.55;;;15.10;96.10;;;;;;5073914;28;20320;-84
2022/09/23 11:13:51;;;;;;;8.05;3.03;;;15.10;96.50;;;;;;5073996;28;20036;-84
2022/09/23 11:16:39;;;;;;;7.18;2.47;;;15.10;96.80;;;;;;5073640;28;20058;-84
2022/09/23 11:19:50;;;;;;;7.88;2.70;;;15.10;96.80;;;;;;5055618;28;20029;-84
2022/09/23 11:22:37;;;;;;;8.75;3.08;;;15.20;96.50;;;;;;5055846;28;20024;-84
2022/09/23 11:25:09;;;;;;;7.28;2.78;;;15.30;95.50;;;;;;5073636;28;20097;-84
2022/09/23 11:27:57;;;;;;;5.57;2.63;;;15.30;95.50;;;;;;5073484;28;20036;-84
2022/09/23 11:30:32;;;;;;;5.72;2.95;;;15.40;95.50;;;;;;5073334;28;20113;-84
2022/09/23 11:33:20;;;;;;;7.65;3.20;;;15.40;95.40;;;;;;5073549;28;20028;-84
2022/09/23 11:35:55;;;;;;;5.37;2.43;;;15.50;95.60;;;;;;5074246;28;20082;-84
2022/09/23 11:38:35;;;;;;;5.50;2.95;;;15.60;95.00;;;;;;5055488;28;20286;-84
2022/09/23 11:41:14;;;;;;;7.72;3.70;;;15.70;94.90;;;;;;5055645;28;20032;-84
2022/09/23 11:43:42;;;;;;;11.40;4.93;;;15.70;95.20;;;;;;5073387;28;20059;-84
2022/09/23 11:46:22;;;;;;;9.95;4.50;;;15.80;94.40;;;;;;5072970;28;20271;-84
2022/09/23 11:49:14;;;;;;;7.50;3.67;;;15.80;94.60;;;;;;5053990;28;20051;-84
2022/09/23 11:52:02;;;;;;;8.63;3.30;;;15.80;95.00;;;;;;5055270;28;20105;-84
2022/09/23 11:54:54;;;;;;;6.10;2.80;;;15.90;94.20;;;;;;5072817;28;20185;-84
2022/09/23 11:57:47;;;;;;;8.00;2.88;;;16.00;94.00;;;;;;5073184;28;20449;-84
2022/09/23 12:00:19;;;;;;;11.25;3.65;;;16.00;94.20;;;;;;5072848;28;20028;-84
2022/09/23 12:03:06;;;;;;;7.20;3.40;;;16.10;94.40;;;;;;5072877;28;20029;-84
2022/09/23 12:05:46;;;;;;;9.18;4.72;;;16.10;94.50;;;;;;5072909;28;20028;-84
2022/09/23 12:08:33;;;;;;;9.23;4.00;;;16.10;94.60;;;;;;5073100;28;20033;-84
2022/09/23 12:11:27;;;;;;;7.53;3.33;;;16.10;94.70;;;;;;5072760;28;20485;-84
2022/09/23 12:14:20;;;;;;;6.18;3.20;;;16.20;95.00;;;;;;5072566;28;20029;-84
2022/09/23 12:17:22;;;;;;;9.90;3.45;;;16.20;94.60;;;;;;5072634;28;20544;-84
2022/09/23 12:20:13;;;;;;;9.50;3.53;;;16.30;94.60;;;;;;5072400;28;20025;-84
2022/09/23 12:23:18;;;;;;;6.47;3.22;;;16.30;94.60;;;;;;5054682;28;20496;-84
2022/09/23 12:25:54;;;;;;;6.40;2.83;;;16.40;94.20;;;;;;5072475;28;20032;-84
2022/09/23 12:28:24;;;;;;;5.63;2.50;;;16.30;94.40;;;;;;5054696;28;20446;-84
2022/09/23 12:30:53;;;;;;;7.82;2.35;;;16.30;94.50;;;;;;5072187;28;20078;-84
2022/09/23 12:33:23;;;;;;;;;;;16.30;94.80;;;;;;5073031;28;20033;-84
2022/09/23 12:35:54;;;;;;;5.40;2.67;;;16.20;95.30;;;;;;5072122;28;19908;-84
2022/09/23 12:38:27;;;;;;;5.50;2.40;;;16.10;95.40;;;;;;5072319;28;20054;-84
2022/09/23 12:40:54;;;;;;;9.40;2.20;;;16.00;95.60;;;;;;5054268;28;20035;-84
2022/09/23 12:43:33;;;;;;;6.10;2.25;;;16.00;95.60;;;;;;5054323;28;20512;-84
2022/09/23 12:46:26;;;;;;;7.43;2.38;;;16.00;95.00;;;;;;5037621;28;20051;-84
2022/09/23 12:48:59;;;;;;;5.15;2.33;;;16.00;95.30;;;;;;5053909;28;20142;-84
2022/09/23 12:51:35;;;;;;;7.20;2.80;;;15.90;95.60;;;;;;5072065;28;20044;-84
2022/09/23 12:54:04;;;;;;;7.18;2.40;;;15.90;95.90;;;;;;5071999;28;20024;-84
2022/09/23 12:56:30;;;;;;;7.28;3.35;;;15.90;95.20;;;;;;5071982;28;20032;-84
2022/09/23 12:59:08;;;;;;;4.63;2.28;;;16.00;94.90;;;;;;5053841;28;20044;-84
2022/09/23 13:01:37;;;;;;;4.55;1.52;;;16.00;94.20;;;;;;5071531;28;20039;-84
2022/09/23 13:07:07;;;;;;;4.60;2.00;;;16.20;94.00;;;;;;5071546;28;20032;-84
2022/09/23 13:09:41;;;;;;;6.20;2.60;;;16.10;94.40;;;;;;5071509;28;20081;-84
2022/09/23 13:12:17;;;;;;;5.30;2.50;;;16.10;94.30;;;;;;5071621;28;20056;-84
2022/09/23 13:14:46;;;;;;;5.00;2.10;;;16.10;94.40;;;;;;5072008;28;20043;-84
2022/09/23 13:17:34;;;;;;;7.00;2.95;;;16.10;94.60;;;;;;5071394;28;20032;-84
2022/09/23 13:20:25;;;;;;;8.80;2.65;;;16.20;94.50;;;;;;5071263;28;20058;-84
2022/09/23 13:22:51;;;;;;;6.15;2.35;;;16.20;94.40;;;;;;5071211;28;20094;-83
2022/09/23 13:25:31;;;;;;;5.22;2.40;;;16.30;94.30;;;;;;5071288;28;20040;-84
2022/09/23 13:28:00;;;;;;;6.72;3.05;;;16.30;93.60;;;;;;5071096;28;20055;-84
2022/09/23 13:30:27;;;;;;;5.00;2.17;;;16.30;93.70;;;;;;5070970;28;20031;-84
2022/09/23 13:33:04;;;;;;;8.75;2.53;;;16.30;93.70;;;;;;5071224;28;20041;-84
2022/09/23 13:35:35;;;;;;;4.65;2.47;;;16.40;93.90;;;;;;5071227;28;20024;-84